createdAt,value
2018-05-14T00:00:13.289Z,4.78
2018-05-14T00:01:20.411Z,4.45
2018-05-14T00:02:26.815Z,5.57
2018-05-14T00:03:33.019Z,4.40
2018-05-14T00:04:39.234Z,5.18
2018-05-14T00:05:45.567Z,5.15
2018-05-14T00:06:51.844Z,4.45
2018-05-14T00:08:01.008Z,4.55
2018-05-14T00:09:06.607Z,4.68
2018-05-14T00:10:13.470Z,5.35
2018-05-14T00:11:19.346Z,4.50
2018-05-14T00:12:25.610Z,5.18
2018-05-14T00:13:32.065Z,4.68
2018-05-14T00:14:38.344Z,4.70
2018-05-14T00:15:46.667Z,4.35
2018-05-14T00:16:52.882Z,4.35
2018-05-14T00:17:59.572Z,4.72
2018-05-14T00:19:05.859Z,5.35
2018-05-14T00:20:12.229Z,5.18
2018-05-14T00:21:18.534Z,4.90
2018-05-14T00:22:24.533Z,5.28
2018-05-14T00:23:31.286Z,5.22
2018-05-14T00:24:37.577Z,5.07
2018-05-14T00:25:43.933Z,4.20
2018-05-14T00:26:50.231Z,5.20
2018-05-14T00:27:56.533Z,5.35
2018-05-14T00:29:02.718Z,5.32
2018-05-14T00:30:08.944Z,4.70
2018-05-14T00:31:15.239Z,5.28
2018-05-14T00:32:21.458Z,4.05
2018-05-14T00:33:29.673Z,5.10
2018-05-14T00:34:37.086Z,4.68
2018-05-14T00:35:43.358Z,5.32
2018-05-14T00:36:50.393Z,5.05
2018-05-14T00:37:57.672Z,5.35
2018-05-14T00:39:03.369Z,4.95
2018-05-14T00:40:09.602Z,5.45
2018-05-14T00:41:15.935Z,5.80
2018-05-14T00:42:22.195Z,5.12
2018-05-14T00:43:28.507Z,5.32
2018-05-14T00:44:34.785Z,4.62
2018-05-14T00:45:41.072Z,6.30
2018-05-14T00:46:47.307Z,6.05
2018-05-14T00:47:53.542Z,5.75
2018-05-14T00:49:00.480Z,6.10
2018-05-14T00:50:07.328Z,6.30
2018-05-14T00:51:14.320Z,5.62
2018-05-14T00:52:20.642Z,5.65
2018-05-14T00:53:27.176Z,5.75
2018-05-14T00:54:33.425Z,5.30
2018-05-14T00:55:39.429Z,6.07
2018-05-14T00:56:45.642Z,5.97
2018-05-14T00:57:51.870Z,5.25
2018-05-14T00:58:58.259Z,5.40
2018-05-14T01:00:03.790Z,5.93
2018-05-14T01:01:10.065Z,5.65
2018-05-14T01:02:16.395Z,5.28
2018-05-14T01:03:22.589Z,5.68
2018-05-14T01:04:28.787Z,5.62
2018-05-14T01:05:35.013Z,6.10
2018-05-14T01:06:41.073Z,5.03
2018-05-14T01:07:47.643Z,5.72
2018-05-14T01:08:54.011Z,6.60
2018-05-14T01:10:00.255Z,5.82
2018-05-14T01:11:06.564Z,6.00
2018-05-14T01:12:13.078Z,5.97
2018-05-14T01:13:19.305Z,6.10
2018-05-14T01:14:25.326Z,6.72
2018-05-14T01:15:31.616Z,6.00
2018-05-14T01:16:37.937Z,6.32
2018-05-14T01:17:43.819Z,5.75
2018-05-14T01:18:50.065Z,5.80
2018-05-14T01:19:56.915Z,6.60
2018-05-14T01:21:03.160Z,6.50
2018-05-14T01:22:09.100Z,5.68
2018-05-14T01:23:15.551Z,6.03
2018-05-14T01:24:21.948Z,5.80
2018-05-14T01:25:28.703Z,6.87
2018-05-14T01:26:34.984Z,7.28
2018-05-14T01:27:41.287Z,6.10
2018-05-14T01:28:47.696Z,6.60
2018-05-14T01:29:53.973Z,5.87
2018-05-14T01:30:59.962Z,5.75
2018-05-14T01:32:06.184Z,6.55
2018-05-14T01:33:12.417Z,6.22
2018-05-14T01:34:18.710Z,6.82
2018-05-14T01:35:24.920Z,6.28
2018-05-14T01:36:31.257Z,6.03
2018-05-14T01:37:37.424Z,6.50
2018-05-14T01:38:43.899Z,6.60
2018-05-14T01:39:50.799Z,7.32
2018-05-14T01:40:57.667Z,5.85
2018-05-14T01:42:03.916Z,6.40
2018-05-14T01:43:13.360Z,6.68
2018-05-14T01:44:20.837Z,6.90
2018-05-14T01:45:27.577Z,6.53
2018-05-14T01:46:34.231Z,6.28
2018-05-14T01:47:40.933Z,5.93
2018-05-14T01:48:47.455Z,6.68
2018-05-14T01:49:54.345Z,6.40
2018-05-14T01:51:00.649Z,5.72
2018-05-14T01:52:07.195Z,6.03
2018-05-14T01:53:13.692Z,6.65
2018-05-14T01:54:20.533Z,7.00
2018-05-14T01:55:26.828Z,6.47
2018-05-14T01:56:34.465Z,6.20
2018-05-14T01:57:42.770Z,6.78
2018-05-14T01:58:49.068Z,7.07
2018-05-14T01:59:55.863Z,6.45
2018-05-14T02:01:02.630Z,6.55
2018-05-14T02:02:08.445Z,6.35
2018-05-14T02:03:14.628Z,6.07
2018-05-14T02:04:21.058Z,6.62
2018-05-14T02:05:27.838Z,6.80
2018-05-14T02:06:34.360Z,5.80
2018-05-14T02:07:40.614Z,6.47
2018-05-14T02:08:47.697Z,6.12
2018-05-14T02:09:55.431Z,6.82
2018-05-14T02:11:01.732Z,7.03
2018-05-14T02:12:08.522Z,6.55
2018-05-14T02:13:15.932Z,7.40
2018-05-14T02:14:27.277Z,6.25
2018-05-14T02:15:34.674Z,6.30
2018-05-14T02:16:41.343Z,6.32
2018-05-14T02:17:47.556Z,6.28
2018-05-14T02:19:00.616Z,5.85
2018-05-14T02:20:07.146Z,6.12
2018-05-14T02:21:14.274Z,6.62
2018-05-14T02:22:25.431Z,7.00
2018-05-14T02:23:32.486Z,5.80
2018-05-14T02:24:40.196Z,6.15
2018-05-14T02:25:46.609Z,6.57
2018-05-14T02:26:52.849Z,5.80
2018-05-14T02:27:59.394Z,6.15
2018-05-14T02:29:05.681Z,6.28
2018-05-14T02:30:12.496Z,6.90
2018-05-14T02:31:19.100Z,6.45
2018-05-14T02:32:25.615Z,6.32
2018-05-14T02:33:31.857Z,5.87
2018-05-14T02:34:38.921Z,5.50
2018-05-14T02:35:45.247Z,5.62
2018-05-14T02:36:51.603Z,6.47
2018-05-14T02:37:57.898Z,6.30
2018-05-14T02:39:03.630Z,6.32
2018-05-14T02:40:10.260Z,5.15
2018-05-14T02:41:16.515Z,6.30
2018-05-14T02:42:22.768Z,5.43
2018-05-14T02:43:29.057Z,5.80
2018-05-14T02:44:35.376Z,5.85
2018-05-14T02:45:41.605Z,6.07
2018-05-14T02:46:48.201Z,6.15
2018-05-14T02:47:54.408Z,5.90
2018-05-14T02:49:01.169Z,5.68
2018-05-14T02:50:07.368Z,6.45
2018-05-14T02:51:13.629Z,6.00
2018-05-14T02:52:20.758Z,6.22
2018-05-14T02:53:27.773Z,5.87
2018-05-14T02:54:34.688Z,5.65
2018-05-14T02:55:40.849Z,6.20
2018-05-14T02:56:47.537Z,5.80
2018-05-14T02:57:53.747Z,5.78
2018-05-14T02:59:01.870Z,5.18
2018-05-14T03:00:07.717Z,6.12
2018-05-14T03:01:14.344Z,6.62
2018-05-14T03:02:21.045Z,6.95
2018-05-14T03:03:28.255Z,6.10
2018-05-14T03:04:34.879Z,6.05
2018-05-14T03:05:40.941Z,6.28
2018-05-14T03:06:48.063Z,6.15
2018-05-14T03:07:55.698Z,5.68
2018-05-14T03:09:02.153Z,6.22
2018-05-14T03:10:08.441Z,6.25
2018-05-14T03:11:14.741Z,5.53
2018-05-14T03:12:21.019Z,6.12
2018-05-14T03:13:27.278Z,5.85
2018-05-14T03:14:34.408Z,6.45
2018-05-14T03:15:41.562Z,6.40
2018-05-14T03:16:47.991Z,5.57
2018-05-14T03:17:53.985Z,5.62
2018-05-14T03:19:01.553Z,5.90
2018-05-14T03:20:08.315Z,6.00
2018-05-14T03:21:14.897Z,6.05
2018-05-14T03:22:22.050Z,5.10
2018-05-14T03:23:28.506Z,6.10
2018-05-14T03:24:34.773Z,5.70
2018-05-14T03:25:41.617Z,6.20
2018-05-14T03:26:50.108Z,5.10
2018-05-14T03:27:57.746Z,6.00
2018-05-14T03:29:04.706Z,5.87
2018-05-14T03:30:11.986Z,5.95
2018-05-14T03:31:18.524Z,7.32
2018-05-14T03:32:24.741Z,6.10
2018-05-14T03:33:34.320Z,6.57
2018-05-14T03:34:40.546Z,5.93
2018-05-14T03:35:46.858Z,5.95
2018-05-14T03:36:53.118Z,6.80
2018-05-14T03:38:00.085Z,6.22
2018-05-14T03:39:05.740Z,5.65
2018-05-14T03:40:12.431Z,5.72
2018-05-14T03:41:18.913Z,6.68
2018-05-14T03:42:25.704Z,6.32
2018-05-14T03:43:33.829Z,5.85
2018-05-14T03:44:40.850Z,6.35
2018-05-14T03:45:47.989Z,6.10
2018-05-14T03:46:54.263Z,6.47
2018-05-14T03:48:00.522Z,5.90
2018-05-14T03:49:06.811Z,6.53
2018-05-14T03:50:16.646Z,6.90
2018-05-14T03:51:22.923Z,6.12
2018-05-14T03:52:29.134Z,6.22
2018-05-14T03:53:35.346Z,6.20
2018-05-14T03:54:41.655Z,6.90
2018-05-14T03:55:48.010Z,6.57
2018-05-14T03:56:55.899Z,6.37
2018-05-14T03:58:02.258Z,6.30
2018-05-14T03:59:19.450Z,6.28
2018-05-14T04:00:36.621Z,6.03
2018-05-14T04:01:54.022Z,5.72
2018-05-14T04:03:11.227Z,5.87
2018-05-14T04:04:29.865Z,6.15
2018-05-14T04:05:48.217Z,6.72
2018-05-14T04:06:54.193Z,6.32
2018-05-14T04:08:00.475Z,7.07
2018-05-14T04:09:06.076Z,6.87
2018-05-14T04:10:13.024Z,6.65
2018-05-14T04:11:19.301Z,6.37
2018-05-14T04:12:25.613Z,6.00
2018-05-14T04:13:31.929Z,6.82
2018-05-14T04:14:38.414Z,7.03
2018-05-14T04:15:44.790Z,7.25
2018-05-14T04:16:51.538Z,6.60
2018-05-14T04:17:58.573Z,6.78
2018-05-14T04:19:04.818Z,7.05
2018-05-14T04:20:11.157Z,6.75
2018-05-14T04:21:17.438Z,6.75
2018-05-14T04:22:23.744Z,5.75
2018-05-14T04:23:29.939Z,6.78
2018-05-14T04:24:36.849Z,6.47
2018-05-14T04:25:43.116Z,6.45
2018-05-14T04:26:49.484Z,6.35
2018-05-14T04:27:56.158Z,6.20
2018-05-14T04:29:02.408Z,7.40
2018-05-14T04:30:08.741Z,6.60
2018-05-14T04:31:15.925Z,7.28
2018-05-14T04:32:22.368Z,6.70
2018-05-14T04:33:29.402Z,7.10
2018-05-14T04:34:35.655Z,7.45
2018-05-14T04:35:42.130Z,6.78
2018-05-14T04:36:48.373Z,7.05
2018-05-14T04:37:54.713Z,7.00
2018-05-14T04:39:00.975Z,6.35
2018-05-14T04:40:07.325Z,6.68
2018-05-14T04:41:13.638Z,7.12
2018-05-14T04:42:19.898Z,6.40
2018-05-14T04:43:26.126Z,7.20
2018-05-14T04:44:32.371Z,7.25
2018-05-14T04:45:38.695Z,6.62
2018-05-14T04:46:44.959Z,7.00
2018-05-14T04:47:51.368Z,7.82
2018-05-14T04:48:57.595Z,7.10
2018-05-14T04:50:03.568Z,6.80
2018-05-14T04:51:09.835Z,6.90
2018-05-14T04:52:16.601Z,7.07
2018-05-14T04:53:22.871Z,6.87
2018-05-14T04:54:29.130Z,7.37
2018-05-14T04:55:35.378Z,7.28
2018-05-14T04:56:41.698Z,6.03
2018-05-14T04:57:48.009Z,6.43
2018-05-14T04:58:54.295Z,6.75
2018-05-14T05:00:00.505Z,6.70
2018-05-14T05:01:06.723Z,7.18
2018-05-14T05:02:13.164Z,7.18
2018-05-14T05:03:20.171Z,6.18
2018-05-14T05:04:26.457Z,6.30
2018-05-14T05:05:33.033Z,7.90
2018-05-14T05:06:39.851Z,7.32
2018-05-14T05:07:46.429Z,6.68
2018-05-14T05:08:53.620Z,7.20
2018-05-14T05:10:00.296Z,6.97
2018-05-14T05:11:06.672Z,7.03
2018-05-14T05:12:13.462Z,7.03
2018-05-14T05:13:19.730Z,7.53
2018-05-14T05:14:26.066Z,6.80
2018-05-14T05:15:32.356Z,7.00
2018-05-14T05:16:38.693Z,7.35
2018-05-14T05:17:44.981Z,6.53
2018-05-14T05:18:50.973Z,7.65
2018-05-14T05:19:57.262Z,6.95
2018-05-14T05:21:03.559Z,6.70
2018-05-14T05:22:09.813Z,7.32
2018-05-14T05:23:16.032Z,7.40
2018-05-14T05:24:23.717Z,6.50
2018-05-14T05:25:30.532Z,7.12
2018-05-14T05:26:36.828Z,6.95
2018-05-14T05:27:43.115Z,7.57
2018-05-14T05:28:49.360Z,7.03
2018-05-14T05:29:55.640Z,6.47
2018-05-14T05:31:01.865Z,7.35
2018-05-14T05:32:08.159Z,8.50
2018-05-14T05:33:14.385Z,6.95
2018-05-14T05:34:20.702Z,7.28
2018-05-14T05:35:26.975Z,8.05
2018-05-14T05:36:33.238Z,7.43
2018-05-14T05:37:39.626Z,6.87
2018-05-14T05:38:45.702Z,7.20
2018-05-14T05:39:51.917Z,7.50
2018-05-14T05:40:58.174Z,7.72
2018-05-14T05:42:04.477Z,8.00
2018-05-14T05:43:12.810Z,7.03
2018-05-14T05:44:18.999Z,7.30
2018-05-14T05:45:25.322Z,6.68
2018-05-14T05:46:31.805Z,7.28
2018-05-14T05:47:38.054Z,7.50
2018-05-14T05:48:44.264Z,7.65
2018-05-14T05:49:50.479Z,7.43
2018-05-14T05:50:56.732Z,6.85
2018-05-14T05:52:03.013Z,6.68
2018-05-14T05:53:09.240Z,7.00
2018-05-14T05:54:15.513Z,6.70
2018-05-14T05:55:21.710Z,6.55
2018-05-14T05:56:28.106Z,7.93
2018-05-14T05:57:34.382Z,7.40
2018-05-14T05:58:40.692Z,6.57
2018-05-14T05:59:46.977Z,7.70
2018-05-14T06:00:54.004Z,7.40
2018-05-14T06:02:00.254Z,7.20
2018-05-14T06:03:07.616Z,6.82
2018-05-14T06:04:13.864Z,6.87
2018-05-14T06:05:26.912Z,6.40
2018-05-14T06:06:33.714Z,6.00
2018-05-14T06:07:41.453Z,6.45
2018-05-14T06:08:47.786Z,7.18
2018-05-14T06:09:54.546Z,7.32
2018-05-14T06:11:00.921Z,6.37
2018-05-14T06:12:07.293Z,6.12
2018-05-14T06:13:14.185Z,7.40
2018-05-14T06:14:20.416Z,7.00
2018-05-14T06:15:27.716Z,7.57
2018-05-14T06:16:34.133Z,7.20
2018-05-14T06:17:40.415Z,6.40
2018-05-14T06:18:46.690Z,7.05
2018-05-14T06:19:53.013Z,7.20
2018-05-14T06:20:59.877Z,6.57
2018-05-14T06:22:08.361Z,6.50
2018-05-14T06:23:14.692Z,7.70
2018-05-14T06:24:20.454Z,7.12
2018-05-14T06:25:26.778Z,6.30
2018-05-14T06:26:33.015Z,6.65
2018-05-14T06:27:39.373Z,7.05
2018-05-14T06:28:45.756Z,7.07
2018-05-14T06:29:52.032Z,6.40
2018-05-14T06:30:58.335Z,6.75
2018-05-14T06:32:04.893Z,7.50
2018-05-14T06:33:11.067Z,7.35
2018-05-14T06:34:17.293Z,7.53
2018-05-14T06:35:23.670Z,6.85
2018-05-14T06:36:29.933Z,7.28
2018-05-14T06:37:36.256Z,7.22
2018-05-14T06:38:43.134Z,6.90
2018-05-14T06:39:49.353Z,6.53
2018-05-14T06:40:55.677Z,7.65
2018-05-14T06:42:04.262Z,8.70
2018-05-14T06:43:11.667Z,7.22
2018-05-14T06:44:20.419Z,7.50
2018-05-14T06:45:39.420Z,6.75
2018-05-14T06:46:49.499Z,6.40
2018-05-14T06:47:59.021Z,6.57
2018-05-14T06:49:09.509Z,6.07
2018-05-14T06:50:18.145Z,6.90
2018-05-14T06:51:25.464Z,7.12
2018-05-14T06:52:35.812Z,6.40
2018-05-14T06:53:45.153Z,6.30
2018-05-14T06:54:53.954Z,6.35
2018-05-14T06:56:00.223Z,7.68
2018-05-14T06:57:06.496Z,6.95
2018-05-14T06:58:12.747Z,6.95
2018-05-14T06:59:19.065Z,6.25
2018-05-14T07:00:25.324Z,6.50
2018-05-14T07:01:31.539Z,6.47
2018-05-14T07:02:37.857Z,6.80
2018-05-14T07:03:44.474Z,6.78
2018-05-14T07:04:54.049Z,6.90
2018-05-14T07:06:02.366Z,6.35
2018-05-14T07:07:08.692Z,5.75
2018-05-14T07:08:15.346Z,7.07
2018-05-14T07:09:22.126Z,6.95
2018-05-14T07:10:28.962Z,6.57
2018-05-14T07:11:38.964Z,6.72
2018-05-14T07:12:45.263Z,7.10
2018-05-14T07:13:51.196Z,6.97
2018-05-14T07:14:57.091Z,6.03
2018-05-14T07:16:03.787Z,7.07
2018-05-14T07:17:10.086Z,6.85
2018-05-14T07:18:16.381Z,6.35
2018-05-14T07:19:22.737Z,7.20
2018-05-14T07:20:29.897Z,6.22
2018-05-14T07:21:36.295Z,6.25
2018-05-14T07:22:42.570Z,6.35
2018-05-14T07:23:48.857Z,6.25
2018-05-14T07:24:55.377Z,6.22
2018-05-14T07:26:01.670Z,6.45
2018-05-14T07:27:07.972Z,6.65
2018-05-14T07:28:14.204Z,6.40
2018-05-14T07:29:20.539Z,5.72
2018-05-14T07:30:26.816Z,6.97
2018-05-14T07:31:33.041Z,6.60
2018-05-14T07:32:39.363Z,7.30
2018-05-14T07:33:45.638Z,6.30
2018-05-14T07:34:52.725Z,7.57
2018-05-14T07:35:58.988Z,7.00
2018-05-14T07:37:05.311Z,6.97
2018-05-14T07:38:11.666Z,6.90
2018-05-14T07:39:17.942Z,6.47
2018-05-14T07:40:24.324Z,6.60
2018-05-14T07:41:30.790Z,6.87
2018-05-14T07:42:37.081Z,5.82
2018-05-14T07:43:43.418Z,6.78
2018-05-14T07:44:50.067Z,7.50
2018-05-14T07:45:56.366Z,6.80
2018-05-14T07:47:02.631Z,6.47
2018-05-14T07:48:08.977Z,6.12
2018-05-14T07:49:15.265Z,6.65
2018-05-14T07:50:21.200Z,6.15
2018-05-14T07:51:28.640Z,6.70
2018-05-14T07:52:34.923Z,6.60
2018-05-14T07:53:41.257Z,7.22
2018-05-14T07:54:47.523Z,6.53
2018-05-14T07:55:53.839Z,6.50
2018-05-14T07:57:00.141Z,6.00
2018-05-14T07:58:06.500Z,7.12
2018-05-14T07:59:12.830Z,6.22
2018-05-14T08:00:20.130Z,5.80
2018-05-14T08:01:27.369Z,7.62
2018-05-14T08:02:33.704Z,6.15
2018-05-14T08:03:39.684Z,6.05
2018-05-14T08:04:45.977Z,6.70
2018-05-14T08:05:52.388Z,7.50
2018-05-14T08:06:58.795Z,6.10
2018-05-14T08:08:05.152Z,7.00
2018-05-14T08:09:11.092Z,6.22
2018-05-14T08:10:17.424Z,6.57
2018-05-14T08:11:23.780Z,6.30
2018-05-14T08:12:30.092Z,6.03
2018-05-14T08:13:36.595Z,6.87
2018-05-14T08:14:42.890Z,6.50
2018-05-14T08:15:49.912Z,5.72
2018-05-14T08:16:56.734Z,6.30
2018-05-14T08:18:03.045Z,6.05
2018-05-14T08:19:09.348Z,6.25
2018-05-14T08:20:15.564Z,6.28
2018-05-14T08:21:21.813Z,5.35
2018-05-14T08:22:28.082Z,5.72
2018-05-14T08:23:34.345Z,6.00
2018-05-14T08:24:41.541Z,5.45
2018-05-14T08:25:48.357Z,6.95
2018-05-14T08:26:54.324Z,6.45
2018-05-14T08:28:00.605Z,5.85
2018-05-14T08:29:07.154Z,5.75
2018-05-14T08:30:13.404Z,6.43
2018-05-14T08:31:19.599Z,5.90
2018-05-14T08:32:25.947Z,5.78
2018-05-14T08:33:32.257Z,5.87
2018-05-14T08:34:38.554Z,5.72
2018-05-14T08:35:44.853Z,5.53
2018-05-14T08:36:51.074Z,5.53
2018-05-14T08:37:57.437Z,6.12
2018-05-14T08:39:03.146Z,5.10
2018-05-14T08:40:09.420Z,6.00
2018-05-14T08:41:15.814Z,5.12
2018-05-14T08:42:22.985Z,5.70
2018-05-14T08:43:29.613Z,5.25
2018-05-14T08:44:35.870Z,5.65
2018-05-14T08:45:42.284Z,5.20
2018-05-14T08:46:48.508Z,5.57
2018-05-14T08:47:54.879Z,5.75
2018-05-14T08:49:02.272Z,6.00
2018-05-14T08:50:08.553Z,5.53
2018-05-14T08:51:14.914Z,5.28
2018-05-14T08:52:21.565Z,5.80
2018-05-14T08:53:28.518Z,4.68
2018-05-14T08:54:34.884Z,5.50
2018-05-14T08:55:41.342Z,5.43
2018-05-14T08:56:47.693Z,5.25
2018-05-14T08:57:53.956Z,4.90
2018-05-14T08:59:00.209Z,5.72
2018-05-14T09:00:06.218Z,4.87
2018-05-14T09:01:12.908Z,4.93
2018-05-14T09:02:19.236Z,4.90
2018-05-14T09:03:25.241Z,5.60
2018-05-14T09:04:32.141Z,5.30
2018-05-14T09:05:38.453Z,5.72
2018-05-14T09:06:44.794Z,5.18
2018-05-14T09:07:51.493Z,5.03
2018-05-14T09:08:58.558Z,5.20
2018-05-14T09:10:04.648Z,5.47
2018-05-14T09:11:10.628Z,4.70
2018-05-14T09:12:16.961Z,4.50
2018-05-14T09:13:23.241Z,5.18
2018-05-14T09:14:29.577Z,4.87
2018-05-14T09:15:36.387Z,4.87
2018-05-14T09:16:42.601Z,5.00
2018-05-14T09:17:48.906Z,4.85
2018-05-14T09:18:54.849Z,4.65
2018-05-14T09:20:02.002Z,4.68
2018-05-14T09:21:08.348Z,5.05
2018-05-14T09:22:14.616Z,4.68
2018-05-14T09:23:22.408Z,4.97
2018-05-14T09:24:29.538Z,4.47
2018-05-14T09:25:35.782Z,4.60
2018-05-14T09:26:42.649Z,4.78
2018-05-14T09:27:48.917Z,4.43
2018-05-14T09:28:55.209Z,4.20
2018-05-14T09:30:01.559Z,4.30
2018-05-14T09:31:07.817Z,4.70
2018-05-14T09:32:13.849Z,5.17
2018-05-14T09:33:20.171Z,5.15
2018-05-14T09:34:26.504Z,5.53
2018-05-14T09:35:32.786Z,4.20
2018-05-14T09:36:38.781Z,5.17
2018-05-14T09:37:44.984Z,4.78
2018-05-14T09:38:51.320Z,4.40
2018-05-14T09:39:57.716Z,4.62
2018-05-14T09:41:04.000Z,5.12
2018-05-14T09:42:10.260Z,4.20
2018-05-14T09:43:16.305Z,4.70
2018-05-14T09:44:22.662Z,4.35
2018-05-14T09:45:28.696Z,4.90
2018-05-14T09:46:34.991Z,4.40
2018-05-14T09:47:41.174Z,4.90
2018-05-14T09:48:47.477Z,4.45
2018-05-14T09:49:53.817Z,4.62
2018-05-14T09:51:00.113Z,4.60
2018-05-14T09:52:07.273Z,4.80
2018-05-14T09:53:13.273Z,4.70
2018-05-14T09:54:19.553Z,4.65
2018-05-14T09:55:25.900Z,5.20
2018-05-14T09:56:32.213Z,4.62
2018-05-14T09:57:38.156Z,4.25
2018-05-14T09:58:44.518Z,4.45
2018-05-14T09:59:51.026Z,4.70
2018-05-14T10:00:57.360Z,4.37
2018-05-14T10:02:03.659Z,4.12
2018-05-14T10:03:09.961Z,4.70
2018-05-14T10:04:16.274Z,4.68
2018-05-14T10:05:23.328Z,4.35
2018-05-14T10:06:29.609Z,4.60
2018-05-14T10:07:35.734Z,4.40
2018-05-14T10:08:41.763Z,4.20
2018-05-14T10:09:50.034Z,4.07
2018-05-14T10:10:56.141Z,3.20
2018-05-14T10:12:02.423Z,4.10
2018-05-14T10:13:08.438Z,3.70
2018-05-14T10:14:14.649Z,4.13
2018-05-14T10:15:22.189Z,4.60
2018-05-14T10:16:30.520Z,4.30
2018-05-14T10:17:36.923Z,4.05
2018-05-14T10:18:43.269Z,4.25
2018-05-14T10:19:49.753Z,4.43
2018-05-14T10:20:56.118Z,4.43
2018-05-14T10:22:02.093Z,4.75
2018-05-14T10:23:08.386Z,4.47
2018-05-14T10:24:14.671Z,4.40
2018-05-14T10:25:20.727Z,4.83
2018-05-14T10:26:27.317Z,4.63
2018-05-14T10:27:33.527Z,4.57
2018-05-14T10:28:39.583Z,4.90
2018-05-14T10:29:45.833Z,4.25
2018-05-14T10:30:53.127Z,4.05
2018-05-14T10:31:59.386Z,4.45
2018-05-14T10:33:05.635Z,4.77
2018-05-14T10:34:11.715Z,4.32
2018-05-14T10:35:18.032Z,4.25
2018-05-14T10:36:24.357Z,4.53
2018-05-14T10:37:30.640Z,4.50
2018-05-14T10:38:37.721Z,4.20
2018-05-14T10:39:45.677Z,4.75
2018-05-14T10:40:51.944Z,4.50
2018-05-14T10:41:58.255Z,4.25
2018-05-14T10:43:04.486Z,4.50
2018-05-14T10:44:10.441Z,5.20
2018-05-14T10:45:16.653Z,4.35
2018-05-14T10:46:22.275Z,4.27
2018-05-14T10:47:28.592Z,4.57
2018-05-14T10:48:34.861Z,4.57
2018-05-14T10:49:40.807Z,3.93
2018-05-14T10:50:47.238Z,4.68
2018-05-14T10:51:53.552Z,4.15
2018-05-14T10:52:59.859Z,4.60
2018-05-14T10:54:06.139Z,4.12
2018-05-14T10:55:12.152Z,4.40
2018-05-14T10:56:18.479Z,4.15
2018-05-14T10:57:24.770Z,4.30
2018-05-14T10:58:31.108Z,3.60
2018-05-14T10:59:37.097Z,4.00
2018-05-14T11:00:43.134Z,4.10
2018-05-14T11:01:49.085Z,4.20
2018-05-14T11:02:55.985Z,4.20
2018-05-14T11:04:02.240Z,4.53
2018-05-14T11:05:08.743Z,4.68
2018-05-14T11:06:15.085Z,3.92
2018-05-14T11:07:22.256Z,4.22
2018-05-14T11:08:28.484Z,3.92
2018-05-14T11:09:34.513Z,4.20
2018-05-14T11:10:40.953Z,3.47
2018-05-14T11:11:47.333Z,3.55
2018-05-14T11:12:53.306Z,3.80
2018-05-14T11:13:59.268Z,3.53
2018-05-14T11:15:05.288Z,3.70
2018-05-14T11:16:11.539Z,3.97
2018-05-14T11:17:17.718Z,3.50
2018-05-14T11:18:23.694Z,3.67
2018-05-14T11:19:29.702Z,3.93
2018-05-14T11:20:35.701Z,3.97
2018-05-14T11:21:41.722Z,3.73
2018-05-14T11:22:49.849Z,3.60
2018-05-14T11:23:56.882Z,2.70
2018-05-14T11:25:03.210Z,3.25
2018-05-14T11:26:09.553Z,3.00
2018-05-14T11:27:15.646Z,3.10
2018-05-14T11:28:22.578Z,3.40
2018-05-14T11:29:28.591Z,2.40
2018-05-14T11:30:34.553Z,3.13
2018-05-14T11:31:40.898Z,3.67
2018-05-14T11:32:47.158Z,3.33
2018-05-14T11:33:53.392Z,2.75
2018-05-14T11:34:59.365Z,2.42
2018-05-14T11:36:05.723Z,2.80
2018-05-14T11:37:12.020Z,2.62
2018-05-14T11:38:18.032Z,2.73
2018-05-14T11:39:24.429Z,2.70
2018-05-14T11:40:30.776Z,2.80
2018-05-14T11:41:37.098Z,2.83
2018-05-14T11:42:43.378Z,2.92
2018-05-14T11:43:49.392Z,2.80
2018-05-14T11:44:55.387Z,3.87
2018-05-14T11:46:01.821Z,3.17
2018-05-14T11:47:08.608Z,3.03
2018-05-14T11:48:14.744Z,3.07
2018-05-14T11:49:20.678Z,3.40
2018-05-14T11:50:26.651Z,3.20
2018-05-14T11:51:32.962Z,2.90
2018-05-14T11:52:39.087Z,3.00
2018-05-14T11:53:45.180Z,3.00
2018-05-14T11:54:51.129Z,3.07
2018-05-14T11:55:57.080Z,3.63
2018-05-14T11:57:03.122Z,2.63
2018-05-14T11:58:09.389Z,2.43
2018-05-14T11:59:16.383Z,3.17
2018-05-14T12:00:23.246Z,2.67
2018-05-14T12:01:29.573Z,2.95
2018-05-14T12:02:36.290Z,2.70
2018-05-14T12:03:42.304Z,3.10
2018-05-14T12:04:48.392Z,2.27
2018-05-14T12:05:54.390Z,3.50
2018-05-14T12:07:00.441Z,3.53
2018-05-14T12:08:06.415Z,2.80
2018-05-14T12:09:12.732Z,3.30
2018-05-14T12:10:18.727Z,3.30
2018-05-14T12:11:25.287Z,3.67
2018-05-14T12:12:31.281Z,3.10
2018-05-14T12:13:37.550Z,3.20
2018-05-14T12:14:43.572Z,3.23
2018-05-14T12:15:50.311Z,3.30
2018-05-14T12:16:56.317Z,3.10
2018-05-14T12:18:02.364Z,2.70
2018-05-14T12:19:09.458Z,2.72
2018-05-14T12:20:15.444Z,2.83
2018-05-14T12:21:21.449Z,3.53
2018-05-14T12:22:27.462Z,3.00
2018-05-14T12:23:33.449Z,3.00
2018-05-14T12:24:39.741Z,3.22
2018-05-14T12:25:45.787Z,3.20
2018-05-14T12:26:51.972Z,3.20
2018-05-14T12:27:57.677Z,3.03
2018-05-14T12:29:03.668Z,3.60
2018-05-14T12:30:09.721Z,3.57
2018-05-14T12:31:15.722Z,3.40
2018-05-14T12:32:21.718Z,3.17
2018-05-14T12:33:27.736Z,3.90
2018-05-14T12:34:33.702Z,3.10
2018-05-14T12:35:40.142Z,2.97
2018-05-14T12:36:46.054Z,3.20
2018-05-14T12:37:52.329Z,3.08
2018-05-14T12:38:58.344Z,2.70
2018-05-14T12:40:03.751Z,3.10
2018-05-14T12:41:10.505Z,2.60
2018-05-14T12:42:16.763Z,2.65
2018-05-14T12:43:22.820Z,2.60
2018-05-14T12:44:28.722Z,2.83
2018-05-14T12:45:34.649Z,2.70
2018-05-14T12:46:40.674Z,2.60
2018-05-14T12:47:46.813Z,2.53
2018-05-14T12:48:52.762Z,3.17
2018-05-14T12:49:59.208Z,2.80
2018-05-14T12:51:05.195Z,2.50
2018-05-14T12:52:11.237Z,2.60
2018-05-14T12:53:17.536Z,2.80
2018-05-14T12:54:23.514Z,2.60
2018-05-14T12:55:29.542Z,2.67
2018-05-14T12:56:35.537Z,2.77
2018-05-14T12:57:41.565Z,2.60
2018-05-14T12:58:47.889Z,2.60
2018-05-14T12:59:54.268Z,2.70
2018-05-14T13:01:00.287Z,2.90
2018-05-14T13:02:06.068Z,2.17
2018-05-14T13:03:12.395Z,2.70
2018-05-14T13:04:18.417Z,2.97
2018-05-14T13:05:24.837Z,2.40
2018-05-14T13:06:31.061Z,2.70
2018-05-14T13:07:38.194Z,2.45
2018-05-14T13:08:44.200Z,2.90
2018-05-14T13:09:50.227Z,2.30
2018-05-14T13:10:56.143Z,3.00
2018-05-14T13:12:03.343Z,3.30
2018-05-14T13:13:10.240Z,2.78
2018-05-14T13:14:16.566Z,2.70
2018-05-14T13:15:22.934Z,2.65
2018-05-14T13:16:28.957Z,3.30
2018-05-14T13:17:35.247Z,2.75
2018-05-14T13:18:40.995Z,2.70
2018-05-14T13:19:46.989Z,2.20
2018-05-14T13:20:52.981Z,2.23
2018-05-14T13:21:58.613Z,2.33
2018-05-14T13:23:05.279Z,2.00
2018-05-14T13:24:11.292Z,2.27
2018-05-14T13:25:17.597Z,2.55
2018-05-14T13:26:23.628Z,2.93
2018-05-14T13:27:29.904Z,3.12
2018-05-14T13:28:36.641Z,2.00
2018-05-14T13:29:42.325Z,2.40
2018-05-14T13:30:49.155Z,2.47
2018-05-14T13:31:55.626Z,2.83
2018-05-14T13:33:01.592Z,2.60
2018-05-14T13:34:11.884Z,2.20
2018-05-14T13:35:17.879Z,2.27
2018-05-14T13:36:23.899Z,2.13
2018-05-14T13:37:30.327Z,2.60
2018-05-14T13:38:36.609Z,2.13
2018-05-14T13:39:43.546Z,2.40
2018-05-14T13:40:50.814Z,1.98
2018-05-14T13:41:56.797Z,2.10
2018-05-14T13:43:03.633Z,2.00
2018-05-14T13:44:09.956Z,2.45
2018-05-14T13:45:16.221Z,2.20
2018-05-14T13:46:22.536Z,1.65
2018-05-14T13:47:28.548Z,2.20
2018-05-14T13:48:34.755Z,2.07
2018-05-14T13:49:41.183Z,1.85
2018-05-14T13:50:47.576Z,2.37
2018-05-14T13:51:54.664Z,2.40
2018-05-14T13:53:00.942Z,1.90
2018-05-14T13:54:07.204Z,2.33
2018-05-14T13:55:13.192Z,2.40
2018-05-14T13:56:19.461Z,2.20
2018-05-14T13:57:26.133Z,2.10
2018-05-14T13:58:32.319Z,2.50
2018-05-14T13:59:38.598Z,2.55
2018-05-14T14:00:44.842Z,2.77
2018-05-14T14:01:50.874Z,2.47
2018-05-14T14:02:56.857Z,1.93
2018-05-14T14:04:05.812Z,2.15
2018-05-14T14:05:12.542Z,2.40
2018-05-14T14:06:18.918Z,2.10
2018-05-14T14:07:25.241Z,2.50
2018-05-14T14:08:31.275Z,2.93
2018-05-14T14:09:38.071Z,2.67
2018-05-14T14:10:44.382Z,2.35
2018-05-14T14:11:50.678Z,2.20
2018-05-14T14:12:56.695Z,2.40
2018-05-14T14:14:03.152Z,2.50
2018-05-14T14:15:09.669Z,2.10
2018-05-14T14:16:15.598Z,2.58
2018-05-14T14:17:21.962Z,2.20
2018-05-14T14:18:28.729Z,2.10
2018-05-14T14:19:35.779Z,3.00
2018-05-14T14:20:42.803Z,2.95
2018-05-14T14:21:50.309Z,2.45
2018-05-14T14:22:57.132Z,2.30
2018-05-14T14:24:04.481Z,2.50
2018-05-14T14:25:11.210Z,2.40
2018-05-14T14:26:17.692Z,2.62
2018-05-14T14:27:23.886Z,2.30
2018-05-14T14:28:30.437Z,2.90
2018-05-14T14:29:36.855Z,2.40
2018-05-14T14:30:42.940Z,2.20
2018-05-14T14:31:49.185Z,2.50
2018-05-14T14:32:55.156Z,2.57
2018-05-14T14:34:01.542Z,2.80
2018-05-14T14:35:08.910Z,2.33
2018-05-14T14:36:15.554Z,2.80
2018-05-14T14:37:21.848Z,2.33
2018-05-14T14:38:28.108Z,2.40
2018-05-14T14:39:34.158Z,2.80
2018-05-14T14:40:40.693Z,2.50
2018-05-14T14:41:47.052Z,2.87
2018-05-14T14:42:53.401Z,2.50
2018-05-14T14:44:00.413Z,2.70
2018-05-14T14:45:06.733Z,3.00
2018-05-14T14:46:13.536Z,3.17